Upstream stations:
Downstream station:
SHEF ID: CDNT2 Canadian Rv nr Canadian, TX
STATION TYPE:
Regulating: Stage = 8.00, Flow = 5231
STAGE RIV-FLOW BAT-LOAD
ft cfs volt
Ccp-Rev Ccp-Rev Ccp-Rev
(US/Central)
05/11 00:00 1.47 71 12.33
05/11 01:00 1.50 75 12.33
05/11 02:00 1.53 79 12.33
05/11 03:00 1.55 82 12.33
05/11 04:00 1.56 83 12.25
05/11 05:00 1.56 83 12.25
05/11 06:00 1.54 81 12.25
05/11 07:00 1.53 79 12.25
05/11 08:00 1.52 78 12.25
05/11 09:00 1.52 78 12.25
05/11 10:00 1.49 74 12.41
05/11 11:00 1.50 75 12.73
05/11 12:00 1.49 74 12.97
05/11 13:00 1.47 71 13.13
05/11 14:00 1.47 71 13.21
05/11 15:00 1.46 70 13.21
05/11 16:00 1.46 70 13.13
05/11 17:00 1.44 67 12.97
05/11 18:00 1.45 68 12.65
05/11 19:00 1.43 66 12.57
05/11 20:00 1.42 65 12.49
05/11 21:00 ---- ---- ----
05/11 22:00 ---- ---- ----
05/11 23:00 ---- ---- ----